sensor_id;sensor_type;location;lat;lon;timestamp;P1;durP1;ratioP1;P2;durP2;ratioP2
72037;SDS011;59900;50.788;12.904;2023-05-07T00:01:22;25.57;;;12.27;;
72037;SDS011;59900;50.788;12.904;2023-05-07T00:03:48;26.37;;;12.60;;
72037;SDS011;59900;50.788;12.904;2023-05-07T00:06:13;21.87;;;10.90;;
72037;SDS011;59900;50.788;12.904;2023-05-07T00:08:39;18.55;;;8.80;;
72037;SDS011;59900;50.788;12.904;2023-05-07T00:11:04;19.67;;;10.00;;
72037;SDS011;59900;50.788;12.904;2023-05-07T00:13:29;21.17;;;9.77;;
72037;SDS011;59900;50.788;12.904;2023-05-07T00:16:00;19.98;;;9.75;;
72037;SDS011;59900;50.788;12.904;2023-05-07T00:18:26;17.58;;;8.57;;
72037;SDS011;59900;50.788;12.904;2023-05-07T00:20:51;15.17;;;8.07;;
72037;SDS011;59900;50.788;12.904;2023-05-07T00:23:16;19.57;;;8.63;;
72037;SDS011;59900;50.788;12.904;2023-05-07T00:25:42;15.20;;;7.50;;
72037;SDS011;59900;50.788;12.904;2023-05-07T00:28:07;16.33;;;7.63;;
72037;SDS011;59900;50.788;12.904;2023-05-07T00:30:32;15.03;;;7.50;;
72037;SDS011;59900;50.788;12.904;2023-05-07T00:32:57;15.50;;;6.70;;
72037;SDS011;59900;50.788;12.904;2023-05-07T00:35:23;14.23;;;7.30;;
72037;SDS011;59900;50.788;12.904;2023-05-07T00:37:48;14.77;;;7.27;;
72037;SDS011;59900;50.788;12.904;2023-05-07T00:40:13;14.55;;;7.00;;
72037;SDS011;59900;50.788;12.904;2023-05-07T00:42:39;13.63;;;7.33;;
72037;SDS011;59900;50.788;12.904;2023-05-07T00:45:04;14.20;;;6.43;;
72037;SDS011;59900;50.788;12.904;2023-05-07T00:47:30;14.77;;;6.70;;
72037;SDS011;59900;50.788;12.904;2023-05-07T00:49:56;14.30;;;6.80;;
72037;SDS011;59900;50.788;12.904;2023-05-07T00:52:21;14.40;;;7.20;;
72037;SDS011;59900;50.788;12.904;2023-05-07T00:54:50;15.90;;;7.22;;
72037;SDS011;59900;50.788;12.904;2023-05-07T00:57:16;13.10;;;7.03;;
72037;SDS011;59900;50.788;12.904;2023-05-07T00:59:42;13.43;;;6.38;;
72037;SDS011;59900;50.788;12.904;2023-05-07T01:02:07;12.40;;;6.27;;
72037;SDS011;59900;50.788;12.904;2023-05-07T01:04:33;14.03;;;6.40;;
72037;SDS011;59900;50.788;12.904;2023-05-07T01:06:58;12.33;;;6.10;;
72037;SDS011;59900;50.788;12.904;2023-05-07T01:09:26;11.25;;;5.93;;
72037;SDS011;59900;50.788;12.904;2023-05-07T01:11:53;12.57;;;6.78;;
72037;SDS011;59900;50.788;12.904;2023-05-07T01:14:20;13.35;;;5.82;;
72037;SDS011;59900;50.788;12.904;2023-05-07T01:16:46;11.80;;;5.77;;
72037;SDS011;59900;50.788;12.904;2023-05-07T01:19:11;12.52;;;6.07;;
72037;SDS011;59900;50.788;12.904;2023-05-07T01:21:39;13.48;;;6.30;;
72037;SDS011;59900;50.788;12.904;2023-05-07T01:24:10;12.75;;;6.05;;
72037;SDS011;59900;50.788;12.904;2023-05-07T01:26:36;11.87;;;5.77;;
72037;SDS011;59900;50.788;12.904;2023-05-07T01:29:01;12.45;;;6.30;;
72037;SDS011;59900;50.788;12.904;2023-05-07T01:31:27;11.30;;;5.93;;
72037;SDS011;59900;50.788;12.904;2023-05-07T01:33:52;13.17;;;6.07;;
72037;SDS011;59900;50.788;12.904;2023-05-07T01:36:18;11.93;;;5.70;;
72037;SDS011;59900;50.788;12.904;2023-05-07T01:38:47;13.50;;;5.88;;
72037;SDS011;59900;50.788;12.904;2023-05-07T01:41:13;14.30;;;6.10;;
72037;SDS011;59900;50.788;12.904;2023-05-07T01:43:39;13.47;;;6.67;;
72037;SDS011;59900;50.788;12.904;2023-05-07T01:46:06;13.52;;;6.25;;
72037;SDS011;59900;50.788;12.904;2023-05-07T01:48:33;11.57;;;5.67;;
72037;SDS011;59900;50.788;12.904;2023-05-07T01:50:59;13.35;;;6.07;;
72037;SDS011;59900;50.788;12.904;2023-05-07T01:53:27;13.60;;;6.70;;
72037;SDS011;59900;50.788;12.904;2023-05-07T01:55:53;12.82;;;5.80;;
72037;SDS011;59900;50.788;12.904;2023-05-07T01:58:18;12.53;;;6.30;;
72037;SDS011;59900;50.788;12.904;2023-05-07T02:00:43;13.80;;;6.47;;
72037;SDS011;59900;50.788;12.904;2023-05-07T02:03:09;12.70;;;6.53;;
72037;SDS011;59900;50.788;12.904;2023-05-07T02:05:34;14.60;;;6.80;;
72037;SDS011;59900;50.788;12.904;2023-05-07T02:07:59;14.00;;;6.77;;
72037;SDS011;59900;50.788;12.904;2023-05-07T02:10:24;12.90;;;6.80;;
72037;SDS011;59900;50.788;12.904;2023-05-07T02:12:50;14.00;;;6.80;;
72037;SDS011;59900;50.788;12.904;2023-05-07T02:15:15;15.13;;;6.67;;
72037;SDS011;59900;50.788;12.904;2023-05-07T02:17:57;14.30;;;7.30;;
72037;SDS011;59900;50.788;12.904;2023-05-07T02:20:28;15.57;;;6.87;;
72037;SDS011;59900;50.788;12.904;2023-05-07T02:22:53;14.00;;;6.72;;
72037;SDS011;59900;50.788;12.904;2023-05-07T02:25:18;15.40;;;7.40;;
72037;SDS011;59900;50.788;12.904;2023-05-07T02:27:44;15.47;;;7.27;;
72037;SDS011;59900;50.788;12.904;2023-05-07T02:30:09;17.23;;;7.30;;
72037;SDS011;59900;50.788;12.904;2023-05-07T02:32:35;15.68;;;7.32;;
72037;SDS011;59900;50.788;12.904;2023-05-07T02:35:00;15.37;;;7.10;;
72037;SDS011;59900;50.788;12.904;2023-05-07T02:37:26;14.23;;;7.00;;
72037;SDS011;59900;50.788;12.904;2023-05-07T02:39:51;15.90;;;7.77;;
72037;SDS011;59900;50.788;12.904;2023-05-07T02:42:16;13.90;;;7.27;;
72037;SDS011;59900;50.788;12.904;2023-05-07T02:44:41;16.33;;;8.00;;
72037;SDS011;59900;50.788;12.904;2023-05-07T02:47:07;16.43;;;8.17;;
72037;SDS011;59900;50.788;12.904;2023-05-07T02:49:33;15.13;;;7.97;;
72037;SDS011;59900;50.788;12.904;2023-05-07T02:51:58;16.20;;;7.63;;
72037;SDS011;59900;50.788;12.904;2023-05-07T02:54:24;15.87;;;7.30;;
72037;SDS011;59900;50.788;12.904;2023-05-07T02:56:49;17.23;;;8.23;;
72037;SDS011;59900;50.788;12.904;2023-05-07T02:59:14;17.83;;;8.52;;
72037;SDS011;59900;50.788;12.904;2023-05-07T03:01:40;17.40;;;7.90;;
72037;SDS011;59900;50.788;12.904;2023-05-07T03:04:06;18.83;;;8.85;;
72037;SDS011;59900;50.788;12.904;2023-05-07T03:06:31;16.83;;;8.50;;
72037;SDS011;59900;50.788;12.904;2023-05-07T03:08:57;18.60;;;8.77;;
72037;SDS011;59900;50.788;12.904;2023-05-07T03:11:22;17.83;;;8.43;;
72037;SDS011;59900;50.788;12.904;2023-05-07T03:13:47;17.23;;;7.90;;
72037;SDS011;59900;50.788;12.904;2023-05-07T03:16:15;22.52;;;8.68;;
72037;SDS011;59900;50.788;12.904;2023-05-07T03:18:40;18.37;;;8.83;;
72037;SDS011;59900;50.788;12.904;2023-05-07T03:21:06;20.87;;;8.90;;
72037;SDS011;59900;50.788;12.904;2023-05-07T03:23:31;19.33;;;9.47;;
72037;SDS011;59900;50.788;12.904;2023-05-07T03:25:56;19.63;;;9.20;;
72037;SDS011;59900;50.788;12.904;2023-05-07T03:28:21;18.40;;;8.73;;
72037;SDS011;59900;50.788;12.904;2023-05-07T03:30:47;21.97;;;9.13;;
72037;SDS011;59900;50.788;12.904;2023-05-07T03:33:12;19.03;;;9.13;;
72037;SDS011;59900;50.788;12.904;2023-05-07T03:35:37;21.20;;;9.30;;
72037;SDS011;59900;50.788;12.904;2023-05-07T03:38:02;23.47;;;9.20;;
72037;SDS011;59900;50.788;12.904;2023-05-07T03:40:28;20.40;;;9.40;;
72037;SDS011;59900;50.788;12.904;2023-05-07T03:42:53;21.03;;;9.50;;
72037;SDS011;59900;50.788;12.904;2023-05-07T03:45:19;21.13;;;9.27;;
72037;SDS011;59900;50.788;12.904;2023-05-07T03:47:45;20.42;;;10.32;;
72037;SDS011;59900;50.788;12.904;2023-05-07T03:50:13;19.93;;;8.83;;
72037;SDS011;59900;50.788;12.904;2023-05-07T03:52:38;20.60;;;9.98;;
72037;SDS011;59900;50.788;12.904;2023-05-07T03:55:04;21.30;;;9.90;;
72037;SDS011;59900;50.788;12.904;2023-05-07T03:57:30;19.17;;;9.50;;
72037;SDS011;59900;50.788;12.904;2023-05-07T03:59:56;18.60;;;9.17;;
72037;SDS011;59900;50.788;12.904;2023-05-07T04:02:21;19.00;;;9.80;;
72037;SDS011;59900;50.788;12.904;2023-05-07T04:04:47;19.27;;;9.23;;
72037;SDS011;59900;50.788;12.904;2023-05-07T04:07:13;19.33;;;8.93;;
72037;SDS011;59900;50.788;12.904;2023-05-07T04:09:38;20.70;;;9.57;;
72037;SDS011;59900;50.788;12.904;2023-05-07T04:12:04;20.20;;;9.73;;
72037;SDS011;59900;50.788;12.904;2023-05-07T04:14:29;19.97;;;9.57;;
72037;SDS011;59900;50.788;12.904;2023-05-07T04:16:57;19.60;;;9.77;;
72037;SDS011;59900;50.788;12.904;2023-05-07T04:19:22;21.03;;;9.40;;
72037;SDS011;59900;50.788;12.904;2023-05-07T04:21:47;21.37;;;10.17;;
72037;SDS011;59900;50.788;12.904;2023-05-07T04:24:12;18.43;;;8.70;;
72037;SDS011;59900;50.788;12.904;2023-05-07T04:26:38;19.52;;;9.32;;
72037;SDS011;59900;50.788;12.904;2023-05-07T04:29:04;21.40;;;9.13;;
72037;SDS011;59900;50.788;12.904;2023-05-07T04:31:29;21.97;;;10.00;;
72037;SDS011;59900;50.788;12.904;2023-05-07T04:33:55;21.77;;;8.98;;
72037;SDS011;59900;50.788;12.904;2023-05-07T04:36:20;21.20;;;9.13;;
72037;SDS011;59900;50.788;12.904;2023-05-07T04:38:46;19.07;;;8.07;;
72037;SDS011;59900;50.788;12.904;2023-05-07T04:41:12;20.97;;;9.40;;
72037;SDS011;59900;50.788;12.904;2023-05-07T04:43:38;21.20;;;8.73;;
72037;SDS011;59900;50.788;12.904;2023-05-07T04:46:03;20.10;;;9.03;;
72037;SDS011;59900;50.788;12.904;2023-05-07T04:48:28;19.73;;;9.00;;
72037;SDS011;59900;50.788;12.904;2023-05-07T04:50:54;21.17;;;9.20;;
72037;SDS011;59900;50.788;12.904;2023-05-07T04:53:20;20.30;;;8.83;;
72037;SDS011;59900;50.788;12.904;2023-05-07T04:55:46;20.13;;;9.05;;
72037;SDS011;59900;50.788;12.904;2023-05-07T04:58:11;16.37;;;8.03;;
72037;SDS011;59900;50.788;12.904;2023-05-07T05:00:37;18.88;;;7.95;;
72037;SDS011;59900;50.788;12.904;2023-05-07T05:03:03;16.65;;;8.07;;
72037;SDS011;59900;50.788;12.904;2023-05-07T05:05:28;16.17;;;7.43;;
72037;SDS011;59900;50.788;12.904;2023-05-07T05:07:54;17.13;;;7.77;;
72037;SDS011;59900;50.788;12.904;2023-05-07T05:10:19;16.07;;;6.93;;
72037;SDS011;59900;50.788;12.904;2023-05-07T05:12:44;15.00;;;7.60;;
72037;SDS011;59900;50.788;12.904;2023-05-07T05:15:11;15.47;;;7.03;;
72037;SDS011;59900;50.788;12.904;2023-05-07T05:17:36;13.88;;;6.80;;
72037;SDS011;59900;50.788;12.904;2023-05-07T05:20:02;15.57;;;6.90;;
72037;SDS011;59900;50.788;12.904;2023-05-07T05:22:27;13.27;;;6.20;;
72037;SDS011;59900;50.788;12.904;2023-05-07T05:24:54;12.95;;;6.25;;
72037;SDS011;59900;50.788;12.904;2023-05-07T05:27:20;13.63;;;5.83;;
72037;SDS011;59900;50.788;12.904;2023-05-07T05:29:45;15.90;;;6.73;;
72037;SDS011;59900;50.788;12.904;2023-05-07T05:32:10;12.13;;;5.77;;
72037;SDS011;59900;50.788;12.904;2023-05-07T05:34:35;15.20;;;6.40;;
72037;SDS011;59900;50.788;12.904;2023-05-07T05:37:00;13.67;;;6.13;;
72037;SDS011;59900;50.788;12.904;2023-05-07T05:39:26;14.97;;;6.63;;
72037;SDS011;59900;50.788;12.904;2023-05-07T05:41:51;11.80;;;5.93;;
72037;SDS011;59900;50.788;12.904;2023-05-07T05:44:16;12.90;;;6.00;;
72037;SDS011;59900;50.788;12.904;2023-05-07T05:46:42;12.50;;;5.93;;
72037;SDS011;59900;50.788;12.904;2023-05-07T05:49:07;14.90;;;6.10;;
72037;SDS011;59900;50.788;12.904;2023-05-07T05:51:33;12.93;;;6.80;;
72037;SDS011;59900;50.788;12.904;2023-05-07T05:53:58;12.73;;;6.57;;
72037;SDS011;59900;50.788;12.904;2023-05-07T05:56:23;13.40;;;6.53;;
72037;SDS011;59900;50.788;12.904;2023-05-07T05:58:49;13.77;;;6.23;;
72037;SDS011;59900;50.788;12.904;2023-05-07T06:01:14;13.87;;;6.67;;
72037;SDS011;59900;50.788;12.904;2023-05-07T06:03:39;13.40;;;6.13;;
72037;SDS011;59900;50.788;12.904;2023-05-07T06:06:05;14.13;;;6.70;;
72037;SDS011;59900;50.788;12.904;2023-05-07T06:08:30;15.30;;;7.60;;
72037;SDS011;59900;50.788;12.904;2023-05-07T06:10:55;14.50;;;7.20;;
72037;SDS011;59900;50.788;12.904;2023-05-07T06:13:21;15.25;;;7.20;;
72037;SDS011;59900;50.788;12.904;2023-05-07T06:15:47;18.20;;;8.20;;
72037;SDS011;59900;50.788;12.904;2023-05-07T06:18:13;15.90;;;7.57;;
72037;SDS011;59900;50.788;12.904;2023-05-07T06:20:38;15.93;;;7.80;;
72037;SDS011;59900;50.788;12.904;2023-05-07T06:23:04;17.10;;;7.70;;
72037;SDS011;59900;50.788;12.904;2023-05-07T06:25:29;16.73;;;8.20;;
72037;SDS011;59900;50.788;12.904;2023-05-07T06:27:54;16.33;;;7.80;;
72037;SDS011;59900;50.788;12.904;2023-05-07T06:30:19;14.57;;;6.90;;
72037;SDS011;59900;50.788;12.904;2023-05-07T06:32:45;14.75;;;7.20;;
72037;SDS011;59900;50.788;12.904;2023-05-07T06:35:10;15.17;;;7.13;;
72037;SDS011;59900;50.788;12.904;2023-05-07T06:37:35;14.93;;;7.17;;
72037;SDS011;59900;50.788;12.904;2023-05-07T06:40:03;14.95;;;7.72;;
72037;SDS011;59900;50.788;12.904;2023-05-07T06:42:29;16.00;;;7.17;;
72037;SDS011;59900;50.788;12.904;2023-05-07T06:44:54;14.40;;;7.23;;
72037;SDS011;59900;50.788;12.904;2023-05-07T06:47:20;15.13;;;7.20;;
72037;SDS011;59900;50.788;12.904;2023-05-07T06:49:45;14.63;;;6.83;;
72037;SDS011;59900;50.788;12.904;2023-05-07T06:52:10;13.47;;;6.40;;
72037;SDS011;59900;50.788;12.904;2023-05-07T06:54:35;12.33;;;5.80;;
72037;SDS011;59900;50.788;12.904;2023-05-07T06:57:01;11.73;;;5.83;;
72037;SDS011;59900;50.788;12.904;2023-05-07T06:59:26;11.13;;;5.83;;
72037;SDS011;59900;50.788;12.904;2023-05-07T07:01:51;11.00;;;5.43;;
72037;SDS011;59900;50.788;12.904;2023-05-07T07:04:16;10.87;;;5.57;;
72037;SDS011;59900;50.788;12.904;2023-05-07T07:06:42;11.60;;;6.17;;
72037;SDS011;59900;50.788;12.904;2023-05-07T07:09:07;11.27;;;5.23;;
72037;SDS011;59900;50.788;12.904;2023-05-07T07:11:32;11.37;;;6.20;;
72037;SDS011;59900;50.788;12.904;2023-05-07T07:13:57;12.27;;;5.63;;
72037;SDS011;59900;50.788;12.904;2023-05-07T07:16:23;13.45;;;6.47;;
72037;SDS011;59900;50.788;12.904;2023-05-07T07:18:49;13.70;;;6.57;;
72037;SDS011;59900;50.788;12.904;2023-05-07T07:21:14;14.43;;;6.40;;
72037;SDS011;59900;50.788;12.904;2023-05-07T07:23:39;14.30;;;7.40;;
72037;SDS011;59900;50.788;12.904;2023-05-07T07:26:05;12.82;;;6.47;;
72037;SDS011;59900;50.788;12.904;2023-05-07T07:28:31;14.02;;;6.07;;
72037;SDS011;59900;50.788;12.904;2023-05-07T07:30:57;10.37;;;5.30;;
72037;SDS011;59900;50.788;12.904;2023-05-07T07:33:22;10.93;;;5.53;;
72037;SDS011;59900;50.788;12.904;2023-05-07T07:35:47;11.03;;;5.37;;
72037;SDS011;59900;50.788;12.904;2023-05-07T07:38:12;11.77;;;5.60;;
72037;SDS011;59900;50.788;12.904;2023-05-07T07:40:38;13.50;;;6.30;;
72037;SDS011;59900;50.788;12.904;2023-05-07T07:43:08;12.27;;;6.25;;
72037;SDS011;59900;50.788;12.904;2023-05-07T07:45:34;12.70;;;6.03;;
72037;SDS011;59900;50.788;12.904;2023-05-07T07:47:59;13.10;;;5.90;;
72037;SDS011;59900;50.788;12.904;2023-05-07T07:50:25;10.97;;;5.73;;
72037;SDS011;59900;50.788;12.904;2023-05-07T07:52:50;11.50;;;6.17;;
72037;SDS011;59900;50.788;12.904;2023-05-07T07:55:15;11.27;;;5.40;;
72037;SDS011;59900;50.788;12.904;2023-05-07T07:57:46;12.27;;;5.50;;
72037;SDS011;59900;50.788;12.904;2023-05-07T08:00:12;11.70;;;5.53;;
72037;SDS011;59900;50.788;12.904;2023-05-07T08:02:38;10.50;;;4.80;;
72037;SDS011;59900;50.788;12.904;2023-05-07T08:05:03;10.83;;;5.53;;
72037;SDS011;59900;50.788;12.904;2023-05-07T08:07:29;13.07;;;6.03;;
72037;SDS011;59900;50.788;12.904;2023-05-07T08:09:54;10.37;;;4.87;;
72037;SDS011;59900;50.788;12.904;2023-05-07T08:12:20;10.47;;;5.20;;
72037;SDS011;59900;50.788;12.904;2023-05-07T08:14:45;10.57;;;5.33;;
72037;SDS011;59900;50.788;12.904;2023-05-07T08:17:10;9.07;;;4.93;;
72037;SDS011;59900;50.788;12.904;2023-05-07T08:19:36;12.33;;;6.23;;
72037;SDS011;59900;50.788;12.904;2023-05-07T08:22:02;12.57;;;6.40;;
72037;SDS011;59900;50.788;12.904;2023-05-07T08:24:29;8.50;;;4.75;;
72037;SDS011;59900;50.788;12.904;2023-05-07T08:26:54;10.13;;;6.10;;
72037;SDS011;59900;50.788;12.904;2023-05-07T08:29:19;9.53;;;5.03;;
72037;SDS011;59900;50.788;12.904;2023-05-07T08:31:44;9.40;;;4.47;;
72037;SDS011;59900;50.788;12.904;2023-05-07T08:34:10;9.55;;;5.13;;
72037;SDS011;59900;50.788;12.904;2023-05-07T08:36:35;10.20;;;5.50;;
72037;SDS011;59900;50.788;12.904;2023-05-07T08:39:00;9.40;;;4.40;;
72037;SDS011;59900;50.788;12.904;2023-05-07T08:41:26;10.00;;;5.23;;
72037;SDS011;59900;50.788;12.904;2023-05-07T08:43:51;12.17;;;5.90;;
72037;SDS011;59900;50.788;12.904;2023-05-07T08:46:17;9.30;;;4.43;;
72037;SDS011;59900;50.788;12.904;2023-05-07T08:48:47;9.20;;;4.93;;
72037;SDS011;59900;50.788;12.904;2023-05-07T08:51:15;8.48;;;4.40;;
72037;SDS011;59900;50.788;12.904;2023-05-07T08:53:46;9.00;;;4.33;;
72037;SDS011;59900;50.788;12.904;2023-05-07T08:56:13;9.90;;;4.80;;
72037;SDS011;59900;50.788;12.904;2023-05-07T08:58:40;10.10;;;4.78;;
72037;SDS011;59900;50.788;12.904;2023-05-07T09:01:07;14.30;;;7.38;;
72037;SDS011;59900;50.788;12.904;2023-05-07T09:03:36;8.75;;;4.28;;
72037;SDS011;59900;50.788;12.904;2023-05-07T09:06:02;8.03;;;4.20;;
72037;SDS011;59900;50.788;12.904;2023-05-07T09:08:28;7.63;;;3.90;;
72037;SDS011;59900;50.788;12.904;2023-05-07T09:10:54;7.37;;;3.97;;
72037;SDS011;59900;50.788;12.904;2023-05-07T09:13:19;7.07;;;3.72;;
72037;SDS011;59900;50.788;12.904;2023-05-07T09:15:45;7.43;;;3.40;;
72037;SDS011;59900;50.788;12.904;2023-05-07T09:18:10;6.83;;;3.60;;
72037;SDS011;59900;50.788;12.904;2023-05-07T09:20:37;7.43;;;3.88;;
72037;SDS011;59900;50.788;12.904;2023-05-07T09:23:02;7.03;;;3.67;;
72037;SDS011;59900;50.788;12.904;2023-05-07T09:25:32;7.43;;;3.57;;
72037;SDS011;59900;50.788;12.904;2023-05-07T09:27:59;7.07;;;3.50;;
72037;SDS011;59900;50.788;12.904;2023-05-07T09:30:28;6.45;;;3.65;;
72037;SDS011;59900;50.788;12.904;2023-05-07T09:32:54;7.72;;;4.18;;
72037;SDS011;59900;50.788;12.904;2023-05-07T09:35:20;7.63;;;4.50;;
72037;SDS011;59900;50.788;12.904;2023-05-07T09:37:52;7.53;;;3.95;;
72037;SDS011;59900;50.788;12.904;2023-05-07T09:40:24;8.60;;;4.93;;
72037;SDS011;59900;50.788;12.904;2023-05-07T09:42:51;8.87;;;4.33;;
72037;SDS011;59900;50.788;12.904;2023-05-07T09:47:50;7.82;;;4.20;;
72037;SDS011;59900;50.788;12.904;2023-05-07T09:50:21;10.23;;;4.50;;
72037;SDS011;59900;50.788;12.904;2023-05-07T09:52:57;7.63;;;4.05;;
72037;SDS011;59900;50.788;12.904;2023-05-07T09:55:24;8.38;;;4.32;;
72037;SDS011;59900;50.788;12.904;2023-05-07T09:57:51;7.15;;;3.92;;
72037;SDS011;59900;50.788;12.904;2023-05-07T10:00:20;8.30;;;4.40;;
72037;SDS011;59900;50.788;12.904;2023-05-07T10:02:47;11.90;;;5.87;;
72037;SDS011;59900;50.788;12.904;2023-05-07T10:05:14;8.30;;;3.95;;
72037;SDS011;59900;50.788;12.904;2023-05-07T10:07:40;8.05;;;4.28;;
72037;SDS011;59900;50.788;12.904;2023-05-07T10:10:06;8.33;;;4.33;;
72037;SDS011;59900;50.788;12.904;2023-05-07T10:12:32;7.28;;;4.53;;
72037;SDS011;59900;50.788;12.904;2023-05-07T10:15:03;8.07;;;4.32;;
72037;SDS011;59900;50.788;12.904;2023-05-07T10:17:32;7.53;;;3.90;;
72037;SDS011;59900;50.788;12.904;2023-05-07T10:20:00;9.47;;;5.00;;
72037;SDS011;59900;50.788;12.904;2023-05-07T10:22:25;11.97;;;6.67;;
72037;SDS011;59900;50.788;12.904;2023-05-07T10:24:53;7.32;;;4.22;;
72037;SDS011;59900;50.788;12.904;2023-05-07T10:27:20;7.32;;;3.67;;
72037;SDS011;59900;50.788;12.904;2023-05-07T10:32:37;10.35;;;3.67;;
72037;SDS011;59900;50.788;12.904;2023-05-07T10:35:06;7.30;;;4.10;;
72037;SDS011;59900;50.788;12.904;2023-05-07T10:37:39;7.40;;;3.75;;
72037;SDS011;59900;50.788;12.904;2023-05-07T10:40:05;7.25;;;3.88;;
72037;SDS011;59900;50.788;12.904;2023-05-07T10:42:32;7.30;;;3.92;;
72037;SDS011;59900;50.788;12.904;2023-05-07T10:44:57;7.17;;;4.40;;
72037;SDS011;59900;50.788;12.904;2023-05-07T10:47:22;7.00;;;3.77;;
72037;SDS011;59900;50.788;12.904;2023-05-07T10:52:17;6.13;;;3.28;;
72037;SDS011;59900;50.788;12.904;2023-05-07T10:54:44;7.50;;;3.80;;
72037;SDS011;59900;50.788;12.904;2023-05-07T10:59:58;6.90;;;3.38;;
72037;SDS011;59900;50.788;12.904;2023-05-07T11:02:23;6.37;;;3.30;;
72037;SDS011;59900;50.788;12.904;2023-05-07T11:05:23;6.25;;;3.67;;
72037;SDS011;59900;50.788;12.904;2023-05-07T11:07:59;7.53;;;4.23;;
72037;SDS011;59900;50.788;12.904;2023-05-07T11:13:16;7.88;;;4.80;;
72037;SDS011;59900;50.788;12.904;2023-05-07T11:15:43;6.75;;;3.60;;
72037;SDS011;59900;50.788;12.904;2023-05-07T11:18:16;7.40;;;3.70;;
72037;SDS011;59900;50.788;12.904;2023-05-07T11:20:49;6.53;;;3.42;;
72037;SDS011;59900;50.788;12.904;2023-05-07T11:26:02;7.25;;;3.65;;
72037;SDS011;59900;50.788;12.904;2023-05-07T11:28:29;7.65;;;4.10;;
72037;SDS011;59900;50.788;12.904;2023-05-07T11:30:56;6.63;;;3.50;;
72037;SDS011;59900;50.788;12.904;2023-05-07T11:33:22;6.80;;;3.97;;
72037;SDS011;59900;50.788;12.904;2023-05-07T11:35:47;6.10;;;3.63;;
72037;SDS011;59900;50.788;12.904;2023-05-07T11:38:13;6.60;;;3.90;;
72037;SDS011;59900;50.788;12.904;2023-05-07T11:40:51;7.90;;;4.33;;
72037;SDS011;59900;50.788;12.904;2023-05-07T11:43:18;7.93;;;4.35;;
72037;SDS011;59900;50.788;12.904;2023-05-07T11:45:46;7.20;;;4.30;;
72037;SDS011;59900;50.788;12.904;2023-05-07T11:48:13;8.13;;;4.53;;
72037;SDS011;59900;50.788;12.904;2023-05-07T11:50:49;7.72;;;4.15;;
72037;SDS011;59900;50.788;12.904;2023-05-07T11:53:16;7.00;;;4.28;;
72037;SDS011;59900;50.788;12.904;2023-05-07T11:55:42;7.83;;;3.93;;
72037;SDS011;59900;50.788;12.904;2023-05-07T11:58:07;7.20;;;4.37;;
72037;SDS011;59900;50.788;12.904;2023-05-07T12:00:35;7.22;;;4.35;;
72037;SDS011;59900;50.788;12.904;2023-05-07T12:03:04;7.23;;;4.77;;
72037;SDS011;59900;50.788;12.904;2023-05-07T12:05:30;7.20;;;4.35;;
72037;SDS011;59900;50.788;12.904;2023-05-07T12:07:56;6.93;;;4.20;;
72037;SDS011;59900;50.788;12.904;2023-05-07T12:10:22;6.88;;;4.35;;
72037;SDS011;59900;50.788;12.904;2023-05-07T12:12:47;7.07;;;3.97;;
72037;SDS011;59900;50.788;12.904;2023-05-07T12:15:15;9.57;;;4.20;;
72037;SDS011;59900;50.788;12.904;2023-05-07T12:17:41;6.75;;;3.88;;
72037;SDS011;59900;50.788;12.904;2023-05-07T12:20:07;7.63;;;3.90;;
72037;SDS011;59900;50.788;12.904;2023-05-07T12:22:33;9.63;;;4.55;;
72037;SDS011;59900;50.788;12.904;2023-05-07T12:24:58;7.67;;;4.20;;
72037;SDS011;59900;50.788;12.904;2023-05-07T12:27:25;6.50;;;3.83;;
72037;SDS011;59900;50.788;12.904;2023-05-07T12:29:50;6.07;;;3.60;;
72037;SDS011;59900;50.788;12.904;2023-05-07T12:32:16;7.73;;;4.93;;
72037;SDS011;59900;50.788;12.904;2023-05-07T12:34:43;9.80;;;4.47;;
72037;SDS011;59900;50.788;12.904;2023-05-07T12:37:09;8.07;;;3.72;;
72037;SDS011;59900;50.788;12.904;2023-05-07T12:39:35;6.10;;;3.70;;
72037;SDS011;59900;50.788;12.904;2023-05-07T12:42:00;6.13;;;3.72;;
72037;SDS011;59900;50.788;12.904;2023-05-07T12:44:28;7.63;;;4.20;;
72037;SDS011;59900;50.788;12.904;2023-05-07T12:46:55;6.30;;;3.70;;
72037;SDS011;59900;50.788;12.904;2023-05-07T12:49:20;5.60;;;3.40;;
72037;SDS011;59900;50.788;12.904;2023-05-07T12:51:48;6.23;;;3.37;;
72037;SDS011;59900;50.788;12.904;2023-05-07T12:57:02;5.68;;;3.50;;
72037;SDS011;59900;50.788;12.904;2023-05-07T12:59:32;6.07;;;3.80;;
72037;SDS011;59900;50.788;12.904;2023-05-07T13:01:58;6.05;;;3.63;;
72037;SDS011;59900;50.788;12.904;2023-05-07T13:04:26;7.00;;;3.83;;
72037;SDS011;59900;50.788;12.904;2023-05-07T13:06:51;5.72;;;3.63;;
72037;SDS011;59900;50.788;12.904;2023-05-07T13:09:17;6.17;;;4.03;;
72037;SDS011;59900;50.788;12.904;2023-05-07T13:11:42;6.43;;;4.20;;
72037;SDS011;59900;50.788;12.904;2023-05-07T13:14:07;6.50;;;3.90;;
72037;SDS011;59900;50.788;12.904;2023-05-07T13:16:33;7.20;;;3.90;;
72037;SDS011;59900;50.788;12.904;2023-05-07T13:18:58;6.50;;;4.00;;
72037;SDS011;59900;50.788;12.904;2023-05-07T13:21:23;6.47;;;4.00;;
72037;SDS011;59900;50.788;12.904;2023-05-07T13:23:48;6.07;;;3.60;;
72037;SDS011;59900;50.788;12.904;2023-05-07T13:26:14;6.20;;;3.97;;
72037;SDS011;59900;50.788;12.904;2023-05-07T13:28:39;6.73;;;4.23;;
72037;SDS011;59900;50.788;12.904;2023-05-07T13:31:05;6.25;;;3.90;;
72037;SDS011;59900;50.788;12.904;2023-05-07T13:33:30;7.67;;;4.57;;
72037;SDS011;59900;50.788;12.904;2023-05-07T13:35:55;6.20;;;3.77;;
72037;SDS011;59900;50.788;12.904;2023-05-07T13:38:21;5.90;;;4.03;;
72037;SDS011;59900;50.788;12.904;2023-05-07T13:40:47;6.00;;;3.87;;
72037;SDS011;59900;50.788;12.904;2023-05-07T13:43:12;9.83;;;4.20;;
72037;SDS011;59900;50.788;12.904;2023-05-07T13:45:37;7.27;;;3.83;;
72037;SDS011;59900;50.788;12.904;2023-05-07T13:48:03;6.27;;;3.90;;
72037;SDS011;59900;50.788;12.904;2023-05-07T13:50:28;6.93;;;4.10;;
72037;SDS011;59900;50.788;12.904;2023-05-07T13:52:54;5.57;;;3.50;;
72037;SDS011;59900;50.788;12.904;2023-05-07T13:55:21;6.13;;;4.18;;
72037;SDS011;59900;50.788;12.904;2023-05-07T13:57:47;6.50;;;4.00;;
72037;SDS011;59900;50.788;12.904;2023-05-07T14:00:20;6.28;;;3.88;;
72037;SDS011;59900;50.788;12.904;2023-05-07T14:02:45;5.60;;;3.43;;
72037;SDS011;59900;50.788;12.904;2023-05-07T14:05:10;6.10;;;3.83;;
72037;SDS011;59900;50.788;12.904;2023-05-07T14:07:35;6.50;;;3.55;;
72037;SDS011;59900;50.788;12.904;2023-05-07T14:10:01;5.90;;;3.70;;
72037;SDS011;59900;50.788;12.904;2023-05-07T14:12:26;6.50;;;4.00;;
72037;SDS011;59900;50.788;12.904;2023-05-07T14:14:51;6.20;;;4.07;;
72037;SDS011;59900;50.788;12.904;2023-05-07T14:17:17;6.47;;;4.20;;
72037;SDS011;59900;50.788;12.904;2023-05-07T14:19:43;6.50;;;4.13;;
72037;SDS011;59900;50.788;12.904;2023-05-07T14:22:08;6.20;;;4.17;;
72037;SDS011;59900;50.788;12.904;2023-05-07T14:24:33;5.80;;;3.90;;
72037;SDS011;59900;50.788;12.904;2023-05-07T14:26:59;6.50;;;3.97;;
72037;SDS011;59900;50.788;12.904;2023-05-07T14:29:24;5.97;;;3.63;;
72037;SDS011;59900;50.788;12.904;2023-05-07T14:31:50;8.30;;;4.07;;
72037;SDS011;59900;50.788;12.904;2023-05-07T14:34:15;6.23;;;3.73;;
72037;SDS011;59900;50.788;12.904;2023-05-07T14:36:40;8.13;;;4.00;;
72037;SDS011;59900;50.788;12.904;2023-05-07T14:39:05;8.47;;;3.90;;